createdAt,value
2023-05-25T00:00:16.476Z,13.98
2023-05-25T00:02:44.585Z,9.70
2023-05-25T00:05:11.495Z,9.88
2023-05-25T00:07:38.803Z,8.05
2023-05-25T00:10:07.087Z,7.55
2023-05-25T00:12:34.625Z,7.25
2023-05-25T00:15:01.310Z,10.75
2023-05-25T00:17:30.274Z,11.32
2023-05-25T00:19:58.472Z,8.60
2023-05-25T00:22:29.159Z,11.00
2023-05-25T00:24:56.006Z,9.93
2023-05-25T00:27:23.051Z,11.52
2023-05-25T00:29:49.646Z,10.20
2023-05-25T00:32:16.117Z,10.05
2023-05-25T00:34:42.685Z,13.25
2023-05-25T00:37:09.268Z,10.05
2023-05-25T00:39:35.805Z,12.65
2023-05-25T00:42:03.553Z,9.85
2023-05-25T00:44:32.179Z,8.93
2023-05-25T00:46:59.958Z,13.55
2023-05-25T00:49:28.355Z,10.35
2023-05-25T00:51:54.942Z,10.05
2023-05-25T00:54:21.990Z,7.80
2023-05-25T00:56:56.010Z,9.50
2023-05-25T00:59:41.375Z,8.00
2023-05-25T01:02:10.459Z,13.68
2023-05-25T01:04:45.273Z,14.45
2023-05-25T01:07:18.307Z,14.30
2023-05-25T01:09:50.661Z,8.55
2023-05-25T01:12:18.405Z,10.75
2023-05-25T01:14:48.274Z,10.23
2023-05-25T01:17:16.027Z,12.55
2023-05-25T01:19:51.896Z,8.18
2023-05-25T01:22:38.485Z,7.53
2023-05-25T01:25:31.649Z,12.65
2023-05-25T01:28:06.397Z,7.40
2023-05-25T01:30:34.668Z,9.32
2023-05-25T01:33:01.770Z,12.13
2023-05-25T01:35:28.499Z,9.85
2023-05-25T01:37:55.764Z,10.07
2023-05-25T01:40:22.375Z,7.13
2023-05-25T01:42:51.930Z,8.82
2023-05-25T01:45:18.585Z,11.32
2023-05-25T01:47:49.044Z,9.80
2023-05-25T01:50:24.328Z,7.90
2023-05-25T01:53:19.457Z,9.52
2023-05-25T01:55:52.919Z,9.13
2023-05-25T01:58:20.782Z,8.85
2023-05-25T02:00:51.011Z,7.85
2023-05-25T02:03:18.142Z,8.98
2023-05-25T02:05:46.459Z,6.35
2023-05-25T02:08:13.110Z,10.02
2023-05-25T02:10:39.914Z,11.10
2023-05-25T02:13:06.465Z,8.82
2023-05-25T02:15:34.011Z,9.35
2023-05-25T02:18:01.010Z,12.60
2023-05-25T02:20:28.555Z,9.75
2023-05-25T02:22:55.159Z,8.85
2023-05-25T02:25:21.777Z,6.88
2023-05-25T02:27:48.422Z,9.35
2023-05-25T02:30:15.075Z,9.13
2023-05-25T02:32:41.693Z,12.48
2023-05-25T02:35:08.655Z,7.72
2023-05-25T02:37:35.233Z,9.57
2023-05-25T02:40:01.761Z,9.38
2023-05-25T02:42:28.338Z,10.77
2023-05-25T02:44:54.865Z,13.55
2023-05-25T02:47:22.097Z,9.80
2023-05-25T02:49:48.689Z,7.93
2023-05-25T02:52:15.165Z,7.75
2023-05-25T02:54:42.015Z,5.68
2023-05-25T02:57:08.729Z,5.28
2023-05-25T02:59:35.470Z,9.73
2023-05-25T03:02:02.268Z,7.30
2023-05-25T03:04:31.141Z,10.15
2023-05-25T03:06:57.784Z,8.13
2023-05-25T03:09:24.941Z,8.70
2023-05-25T03:11:51.687Z,8.57
2023-05-25T03:14:18.295Z,6.65
2023-05-25T03:16:44.882Z,9.82
2023-05-25T03:19:12.425Z,8.20
2023-05-25T03:21:39.464Z,8.15
2023-05-25T03:24:06.417Z,9.70
2023-05-25T03:26:33.334Z,10.30
2023-05-25T03:28:59.853Z,7.57
2023-05-25T03:31:26.810Z,11.48
2023-05-25T03:33:53.538Z,7.43
2023-05-25T03:36:20.095Z,8.95
2023-05-25T03:38:47.087Z,9.20
2023-05-25T03:41:14.621Z,8.93
2023-05-25T03:43:41.221Z,6.93
2023-05-25T03:46:07.940Z,12.45
2023-05-25T03:48:34.880Z,8.15
2023-05-25T03:51:01.358Z,6.90
2023-05-25T03:53:27.817Z,6.55
2023-05-25T03:55:54.682Z,7.10
2023-05-25T03:58:21.326Z,7.80
2023-05-25T04:00:50.554Z,11.70
2023-05-25T04:03:17.363Z,8.63
2023-05-25T04:05:46.078Z,6.30
2023-05-25T04:08:18.067Z,10.50
2023-05-25T04:10:47.586Z,7.60
2023-05-25T04:13:14.572Z,8.73
2023-05-25T04:15:41.151Z,7.38
2023-05-25T04:18:07.739Z,7.38
2023-05-25T04:20:34.552Z,6.72
2023-05-25T04:23:01.361Z,9.95
2023-05-25T04:25:29.519Z,8.57
2023-05-25T04:27:59.349Z,10.25
2023-05-25T04:30:26.078Z,7.07
2023-05-25T04:32:52.626Z,10.13
2023-05-25T04:35:20.988Z,7.93
2023-05-25T04:37:48.397Z,8.90
2023-05-25T04:40:15.089Z,6.72
2023-05-25T04:42:42.026Z,7.93
2023-05-25T04:45:10.536Z,10.82
2023-05-25T04:47:37.795Z,8.65
2023-05-25T04:50:04.631Z,7.93
2023-05-25T04:52:31.228Z,9.40
2023-05-25T04:54:57.840Z,9.48
2023-05-25T04:57:24.413Z,11.88
2023-05-25T04:59:51.214Z,7.20
2023-05-25T05:02:17.739Z,8.73
2023-05-25T05:04:44.421Z,8.48
2023-05-25T05:07:11.081Z,9.38
2023-05-25T05:09:37.986Z,11.73
2023-05-25T05:12:04.799Z,12.65
2023-05-25T05:14:31.294Z,12.50
2023-05-25T05:16:57.987Z,10.35
2023-05-25T05:19:24.662Z,11.32
2023-05-25T05:21:51.465Z,12.10
2023-05-25T05:24:18.009Z,10.45
2023-05-25T05:26:57.433Z,10.20
2023-05-25T05:29:27.132Z,10.30
2023-05-25T05:31:55.711Z,13.48
2023-05-25T05:34:22.356Z,14.85
2023-05-25T05:36:57.270Z,9.40
2023-05-25T05:39:24.978Z,13.40
2023-05-25T05:41:51.722Z,12.60
2023-05-25T05:44:21.427Z,10.30
2023-05-25T05:46:48.064Z,11.55
2023-05-25T05:49:14.894Z,15.10
2023-05-25T05:51:41.565Z,15.05
2023-05-25T05:54:08.086Z,12.88
2023-05-25T05:56:34.577Z,17.83
2023-05-25T05:59:01.159Z,10.98
2023-05-25T06:01:27.680Z,11.50
2023-05-25T06:03:54.888Z,15.27
2023-05-25T06:06:21.827Z,18.35
2023-05-25T06:08:48.349Z,14.13
2023-05-25T06:11:14.853Z,12.85
2023-05-25T06:13:41.682Z,12.10
2023-05-25T06:16:08.329Z,14.07
2023-05-25T06:18:34.968Z,11.27
2023-05-25T06:21:02.297Z,13.32
2023-05-25T06:23:28.779Z,11.63
2023-05-25T06:25:55.456Z,16.10
2023-05-25T06:28:23.245Z,14.90
2023-05-25T06:30:49.902Z,12.05
2023-05-25T06:33:16.814Z,11.75
2023-05-25T06:35:44.052Z,11.10
2023-05-25T06:38:12.191Z,14.38
2023-05-25T06:40:39.082Z,12.98
2023-05-25T06:43:05.886Z,12.73
2023-05-25T06:45:32.617Z,12.60
2023-05-25T06:47:59.171Z,14.65
2023-05-25T06:50:25.923Z,13.90
2023-05-25T06:52:52.761Z,12.70
2023-05-25T06:55:26.730Z,11.30
2023-05-25T06:58:00.559Z,11.45
2023-05-25T07:00:29.562Z,14.32
2023-05-25T07:02:56.253Z,10.00
2023-05-25T07:05:23.207Z,15.10
2023-05-25T07:07:49.736Z,12.18
2023-05-25T07:10:17.306Z,11.20
2023-05-25T07:12:44.331Z,11.55
2023-05-25T07:15:11.128Z,10.85
2023-05-25T07:17:38.963Z,10.98
2023-05-25T07:20:06.404Z,15.68
2023-05-25T07:22:33.338Z,12.90
2023-05-25T07:25:01.254Z,8.88
2023-05-25T07:27:27.884Z,13.45
2023-05-25T07:29:54.353Z,8.35
2023-05-25T07:32:21.276Z,12.32
2023-05-25T07:34:48.076Z,15.43
2023-05-25T07:37:14.793Z,14.18
2023-05-25T07:39:43.088Z,13.02
2023-05-25T07:42:11.014Z,10.75
2023-05-25T07:44:37.569Z,11.85
2023-05-25T07:47:04.365Z,13.57
2023-05-25T07:49:30.908Z,9.38
2023-05-25T07:51:57.611Z,9.68
2023-05-25T07:54:24.265Z,11.20
2023-05-25T07:56:51.113Z,12.38
2023-05-25T07:59:17.831Z,12.32
2023-05-25T08:01:44.429Z,13.98
2023-05-25T08:04:11.352Z,12.85
2023-05-25T08:06:38.589Z,10.52
2023-05-25T08:09:05.104Z,13.00
2023-05-25T08:11:31.899Z,13.68
2023-05-25T08:14:00.067Z,13.82
2023-05-25T08:16:27.127Z,9.23
2023-05-25T08:18:53.615Z,12.77
2023-05-25T08:21:20.225Z,11.25
2023-05-25T08:23:48.707Z,9.65
2023-05-25T08:26:34.257Z,11.40
2023-05-25T08:29:04.751Z,10.52
2023-05-25T08:31:34.248Z,12.60
2023-05-25T08:36:46.098Z,11.98
2023-05-25T08:39:13.257Z,9.15
2023-05-25T08:41:42.959Z,12.52
2023-05-25T08:44:14.412Z,13.25
2023-05-25T08:46:44.372Z,13.38
2023-05-25T08:49:13.263Z,9.68
2023-05-25T08:51:58.545Z,12.73
2023-05-25T08:54:30.187Z,12.63
2023-05-25T08:57:21.465Z,14.02
2023-05-25T08:59:53.231Z,11.52
2023-05-25T09:02:56.898Z,10.90
2023-05-25T09:05:24.409Z,8.93
2023-05-25T09:07:56.760Z,9.32
2023-05-25T09:10:26.659Z,9.40
2023-05-25T09:12:55.037Z,8.98
2023-05-25T09:15:21.795Z,8.68
2023-05-25T09:17:48.445Z,11.70
2023-05-25T09:20:16.363Z,9.27
2023-05-25T09:22:44.460Z,8.15
2023-05-25T09:25:13.689Z,7.32
2023-05-25T09:27:41.435Z,8.95
2023-05-25T09:30:11.330Z,10.13
2023-05-25T09:32:38.797Z,8.93
2023-05-25T09:35:14.817Z,8.77
2023-05-25T09:37:42.517Z,10.80
2023-05-25T09:40:11.181Z,8.02
2023-05-25T09:42:38.753Z,7.07
2023-05-25T09:45:06.323Z,7.95
2023-05-25T09:47:37.300Z,9.85
2023-05-25T09:50:04.252Z,8.63
2023-05-25T09:52:31.764Z,8.13
2023-05-25T09:55:01.042Z,8.55
2023-05-25T09:57:28.312Z,9.07
2023-05-25T09:59:54.893Z,7.82
2023-05-25T10:02:21.983Z,10.25
2023-05-25T10:04:48.784Z,10.00
2023-05-25T10:07:17.349Z,9.48
2023-05-25T10:09:46.902Z,7.18
2023-05-25T10:12:20.187Z,8.10
2023-05-25T10:14:50.044Z,10.65
2023-05-25T10:17:23.273Z,7.68
2023-05-25T10:19:57.798Z,7.90
2023-05-25T10:22:31.841Z,7.10
2023-05-25T10:25:07.766Z,6.97
2023-05-25T10:28:08.447Z,4.93
2023-05-25T10:30:37.025Z,8.00
2023-05-25T10:33:04.376Z,7.20
2023-05-25T10:35:35.588Z,7.72
2023-05-25T10:38:07.286Z,6.18
2023-05-25T10:40:34.833Z,5.57
2023-05-25T10:43:02.366Z,5.85
2023-05-25T10:45:29.573Z,5.00
2023-05-25T10:47:56.259Z,7.68
2023-05-25T10:50:26.841Z,7.85
2023-05-25T10:53:05.872Z,7.18
2023-05-25T10:55:43.105Z,5.95
2023-05-25T10:58:15.532Z,5.93
2023-05-25T11:00:44.121Z,6.38
2023-05-25T11:03:10.939Z,6.38
2023-05-25T11:05:39.836Z,7.40
2023-05-25T11:08:08.999Z,6.55
2023-05-25T11:10:51.354Z,8.18
2023-05-25T11:13:32.491Z,6.43
2023-05-25T11:16:21.962Z,7.07
2023-05-25T11:18:58.007Z,8.90
2023-05-25T11:21:27.527Z,6.32
2023-05-25T11:23:57.302Z,7.22
2023-05-25T11:26:26.683Z,9.93
2023-05-25T11:28:55.071Z,8.52
2023-05-25T11:31:29.964Z,8.68
2023-05-25T11:33:58.293Z,10.27
2023-05-25T11:36:25.848Z,7.65
2023-05-25T11:39:03.119Z,8.05
2023-05-25T11:41:33.337Z,11.10
2023-05-25T11:44:07.182Z,8.88
2023-05-25T11:47:01.923Z,6.32
2023-05-25T11:49:29.177Z,9.38
2023-05-25T11:51:57.569Z,8.90
2023-05-25T11:54:25.795Z,8.63
2023-05-25T11:56:54.102Z,9.90
2023-05-25T11:59:21.189Z,7.75
2023-05-25T12:01:58.713Z,10.20
2023-05-25T12:04:25.630Z,8.48
2023-05-25T12:06:52.358Z,8.20
2023-05-25T12:09:22.447Z,8.57
2023-05-25T12:11:50.680Z,7.55
2023-05-25T12:14:19.313Z,6.70
2023-05-25T12:16:46.365Z,9.93
2023-05-25T12:19:13.918Z,10.65
2023-05-25T12:21:41.686Z,8.98
2023-05-25T12:24:09.142Z,7.10
2023-05-25T12:26:49.926Z,9.30
2023-05-25T12:29:16.765Z,6.80
2023-05-25T12:31:43.414Z,8.50
2023-05-25T12:34:13.506Z,7.88
2023-05-25T12:36:46.334Z,9.75
2023-05-25T12:39:16.205Z,8.98
2023-05-25T12:41:54.517Z,8.85
2023-05-25T12:44:27.895Z,10.07
2023-05-25T12:46:56.731Z,9.85
2023-05-25T12:49:28.659Z,8.80
2023-05-25T12:51:59.701Z,10.80
2023-05-25T12:54:44.153Z,10.18
2023-05-25T12:57:15.256Z,11.38
2023-05-25T12:59:56.475Z,15.05
2023-05-25T13:02:23.365Z,11.27
2023-05-25T13:04:50.007Z,9.18
2023-05-25T13:07:17.690Z,9.70
2023-05-25T13:09:44.501Z,9.50
2023-05-25T13:12:11.325Z,9.23
2023-05-25T13:14:38.135Z,11.55
2023-05-25T13:17:05.045Z,12.05
2023-05-25T13:19:31.841Z,12.50
2023-05-25T13:21:59.768Z,9.00
2023-05-25T13:24:26.451Z,13.60
2023-05-25T13:26:53.857Z,12.45
2023-05-25T13:29:20.577Z,11.35
2023-05-25T13:31:48.193Z,10.70
2023-05-25T13:34:15.199Z,10.50
2023-05-25T13:36:41.932Z,13.48
2023-05-25T13:39:12.781Z,13.07
2023-05-25T13:41:40.043Z,9.25
2023-05-25T13:44:11.460Z,12.55
2023-05-25T13:46:38.358Z,15.43
2023-05-25T13:49:05.260Z,11.85
2023-05-25T13:51:35.752Z,12.40
2023-05-25T13:54:04.966Z,12.77
2023-05-25T13:56:31.652Z,16.15
2023-05-25T13:58:58.608Z,13.07
2023-05-25T14:01:27.931Z,14.95
2023-05-25T14:03:56.425Z,12.88
2023-05-25T14:06:23.329Z,14.40
2023-05-25T14:08:52.871Z,14.80
2023-05-25T14:11:27.393Z,12.02
2023-05-25T14:13:56.153Z,17.02
2023-05-25T14:16:23.087Z,12.60
2023-05-25T14:18:52.975Z,15.45
2023-05-25T14:21:20.735Z,14.60
2023-05-25T14:23:48.070Z,14.98
2023-05-25T14:26:15.330Z,11.98
2023-05-25T14:28:43.025Z,12.65
2023-05-25T14:31:09.854Z,13.20
2023-05-25T14:33:40.156Z,11.75
2023-05-25T14:36:09.356Z,10.05
2023-05-25T14:38:36.856Z,12.80
2023-05-25T14:41:06.860Z,11.27
2023-05-25T14:43:34.989Z,13.23
2023-05-25T14:46:02.633Z,15.70
2023-05-25T14:48:29.849Z,12.20
2023-05-25T14:51:01.032Z,12.20
2023-05-25T14:53:31.133Z,12.68
2023-05-25T14:55:59.133Z,12.40
2023-05-25T14:58:26.733Z,13.90
2023-05-25T15:00:54.385Z,16.08
2023-05-25T15:03:21.553Z,14.38
2023-05-25T15:05:48.994Z,13.80
2023-05-25T15:08:15.486Z,11.90
2023-05-25T15:10:43.212Z,17.50
2023-05-25T15:13:10.372Z,13.50
2023-05-25T15:15:38.505Z,13.05
2023-05-25T15:18:06.760Z,14.50
2023-05-25T15:20:33.694Z,17.45
2023-05-25T15:23:02.952Z,14.65
2023-05-25T15:25:35.109Z,13.32
2023-05-25T15:28:02.436Z,15.35
2023-05-25T15:30:28.910Z,10.10
2023-05-25T15:32:55.424Z,12.85
2023-05-25T15:35:22.014Z,14.23
2023-05-25T15:37:48.780Z,14.00
2023-05-25T15:40:15.422Z,15.15
2023-05-25T15:42:42.005Z,12.48
2023-05-25T15:45:12.789Z,14.52
2023-05-25T15:47:39.381Z,13.90
2023-05-25T15:50:06.749Z,15.52
2023-05-25T15:52:33.330Z,14.63
2023-05-25T15:54:59.863Z,12.25
2023-05-25T15:57:26.428Z,15.43
2023-05-25T15:59:52.897Z,16.15
2023-05-25T16:02:19.496Z,15.88
2023-05-25T16:04:46.082Z,15.13
2023-05-25T16:07:14.168Z,15.85
2023-05-25T16:09:41.011Z,15.27
2023-05-25T16:12:07.607Z,17.23
2023-05-25T16:14:37.090Z,15.50
2023-05-25T16:17:03.683Z,30.45
2023-05-25T16:19:30.283Z,14.65
2023-05-25T16:21:56.888Z,15.50
2023-05-25T16:24:25.570Z,13.32
2023-05-25T16:26:53.583Z,15.00
2023-05-25T16:29:20.141Z,15.68
2023-05-25T16:31:46.680Z,15.07
2023-05-25T16:34:13.377Z,14.18
2023-05-25T16:36:40.044Z,17.15
2023-05-25T16:39:07.975Z,18.20
2023-05-25T16:41:34.725Z,17.10
2023-05-25T16:44:01.594Z,14.18
2023-05-25T16:46:28.257Z,15.23
2023-05-25T16:48:54.974Z,19.75
2023-05-25T16:51:24.059Z,17.48
2023-05-25T16:53:52.499Z,13.35
2023-05-25T16:56:21.512Z,18.50
2023-05-25T16:58:48.116Z,17.77
2023-05-25T17:01:14.753Z,18.92
2023-05-25T17:03:41.486Z,16.70
2023-05-25T17:06:08.681Z,13.05
2023-05-25T17:08:37.690Z,16.55
2023-05-25T17:11:04.321Z,14.45
2023-05-25T17:13:30.956Z,14.40
2023-05-25T17:15:57.753Z,17.08
2023-05-25T17:18:27.001Z,17.85
2023-05-25T17:20:53.775Z,14.73
2023-05-25T17:23:20.870Z,21.15
2023-05-25T17:25:47.662Z,15.07
2023-05-25T17:28:14.350Z,16.17
2023-05-25T17:30:41.015Z,15.82
2023-05-25T17:33:07.628Z,15.23
2023-05-25T17:35:34.211Z,17.13
2023-05-25T17:38:00.873Z,17.55
2023-05-25T17:40:27.499Z,15.27
2023-05-25T17:42:54.335Z,13.90
2023-05-25T17:45:21.089Z,14.05
2023-05-25T17:47:50.319Z,12.65
2023-05-25T17:50:17.149Z,14.75
2023-05-25T17:52:46.928Z,14.68
2023-05-25T17:55:13.686Z,19.52
2023-05-25T17:57:40.547Z,14.88
2023-05-25T18:00:07.663Z,13.02
2023-05-25T18:02:34.450Z,19.00
2023-05-25T18:05:03.980Z,14.18
2023-05-25T18:07:30.621Z,15.30
2023-05-25T18:09:57.314Z,17.13
2023-05-25T18:12:26.027Z,15.35
2023-05-25T18:14:52.643Z,16.98
2023-05-25T18:17:19.618Z,18.83
2023-05-25T18:19:46.528Z,17.20
2023-05-25T18:22:13.258Z,14.45
2023-05-25T18:24:41.917Z,19.52
2023-05-25T18:27:08.748Z,15.02
2023-05-25T18:29:35.380Z,17.20
2023-05-25T18:32:03.984Z,15.23
2023-05-25T18:34:30.646Z,19.02
2023-05-25T18:36:58.352Z,16.08
2023-05-25T18:39:25.153Z,25.67
2023-05-25T18:41:55.126Z,17.98
2023-05-25T18:44:24.367Z,18.73
2023-05-25T18:46:52.739Z,12.93
2023-05-25T18:49:19.413Z,16.73
2023-05-25T18:51:46.344Z,16.05
2023-05-25T18:54:13.117Z,14.65
2023-05-25T18:56:39.875Z,18.50
2023-05-25T18:59:06.518Z,19.98
2023-05-25T19:01:33.482Z,17.83
2023-05-25T19:04:02.474Z,15.73
2023-05-25T19:06:29.348Z,16.90
2023-05-25T19:08:56.168Z,19.85
2023-05-25T19:11:25.151Z,15.35
2023-05-25T19:13:51.965Z,23.73
2023-05-25T19:16:18.971Z,12.13
2023-05-25T19:18:45.909Z,14.90
2023-05-25T19:21:12.763Z,15.98
2023-05-25T19:23:39.850Z,18.25
2023-05-25T19:26:06.578Z,18.20
2023-05-25T19:28:34.136Z,16.67
2023-05-25T19:31:01.023Z,20.80
2023-05-25T19:33:27.813Z,19.00
2023-05-25T19:35:55.042Z,18.42
2023-05-25T19:38:22.107Z,19.05
2023-05-25T19:40:50.099Z,13.50
2023-05-25T19:43:16.785Z,17.67
2023-05-25T19:45:44.661Z,17.75
2023-05-25T19:48:11.655Z,12.05
2023-05-25T19:50:38.387Z,16.02
2023-05-25T19:53:05.153Z,19.67
2023-05-25T19:55:35.166Z,16.13
2023-05-25T19:58:01.725Z,18.70
2023-05-25T20:00:28.516Z,20.17
2023-05-25T20:02:55.585Z,13.40
2023-05-25T20:05:22.752Z,17.25
2023-05-25T20:07:51.037Z,17.88
2023-05-25T20:10:17.806Z,17.10
2023-05-25T20:12:44.630Z,13.82
2023-05-25T20:15:13.782Z,15.77
2023-05-25T20:17:40.545Z,19.42
2023-05-25T20:20:07.548Z,13.73
2023-05-25T20:22:37.454Z,13.02
2023-05-25T20:25:04.209Z,12.90
2023-05-25T20:27:32.158Z,17.60
2023-05-25T20:29:58.937Z,17.52
2023-05-25T20:32:25.720Z,16.23
2023-05-25T20:34:52.546Z,14.93
2023-05-25T20:37:19.272Z,13.32
2023-05-25T20:39:45.908Z,16.08
2023-05-25T20:42:14.624Z,14.88
2023-05-25T20:44:41.592Z,13.13
2023-05-25T20:47:08.358Z,19.77
2023-05-25T20:49:35.068Z,17.00
2023-05-25T20:52:01.732Z,13.60
2023-05-25T20:54:28.554Z,19.00
2023-05-25T20:56:55.226Z,15.13
2023-05-25T20:59:22.209Z,13.35
2023-05-25T21:01:49.205Z,14.93
2023-05-25T21:04:16.334Z,14.77
2023-05-25T21:06:43.132Z,19.05
2023-05-25T21:09:09.817Z,17.00
2023-05-25T21:11:36.680Z,20.15
2023-05-25T21:14:03.530Z,13.48
2023-05-25T21:16:30.309Z,12.27
2023-05-25T21:18:57.096Z,14.30
2023-05-25T21:21:23.799Z,14.73
2023-05-25T21:23:50.458Z,12.70
2023-05-25T21:26:17.120Z,17.08
2023-05-25T21:28:43.819Z,15.48
2023-05-25T21:31:11.131Z,15.63
2023-05-25T21:33:38.173Z,12.77
2023-05-25T21:36:05.222Z,12.25
2023-05-25T21:38:32.170Z,12.30
2023-05-25T21:41:02.960Z,14.95
2023-05-25T21:43:32.494Z,11.90
2023-05-25T21:45:59.145Z,21.38
2023-05-25T21:48:26.344Z,16.38
2023-05-25T21:50:53.672Z,13.57
2023-05-25T21:53:21.435Z,17.95
2023-05-25T21:55:48.362Z,15.60
2023-05-25T21:58:17.704Z,14.85
2023-05-25T22:00:45.044Z,16.48
2023-05-25T22:03:12.096Z,16.52
2023-05-25T22:05:38.982Z,20.52
2023-05-25T22:08:06.129Z,19.13
2023-05-25T22:10:32.875Z,16.85
2023-05-25T22:12:59.651Z,15.20
2023-05-25T22:15:26.625Z,16.80
2023-05-25T22:17:53.555Z,12.60
2023-05-25T22:20:20.348Z,19.73
2023-05-25T22:22:47.203Z,16.52
2023-05-25T22:25:13.948Z,22.77
2023-05-25T22:27:40.788Z,16.05
2023-05-25T22:30:08.311Z,16.92
2023-05-25T22:32:35.393Z,21.45
2023-05-25T22:35:02.763Z,19.67
2023-05-25T22:37:29.525Z,16.15
2023-05-25T22:39:57.611Z,12.80
2023-05-25T22:42:24.462Z,14.05
2023-05-25T22:44:51.440Z,16.05
2023-05-25T22:47:18.254Z,14.63
2023-05-25T22:49:45.502Z,12.07
2023-05-25T22:52:12.387Z,11.90
2023-05-25T22:54:39.249Z,20.20
2023-05-25T22:57:06.907Z,12.52
2023-05-25T22:59:34.063Z,17.08
2023-05-25T23:02:01.149Z,15.77
2023-05-25T23:04:30.534Z,16.48
2023-05-25T23:06:57.279Z,15.20
2023-05-25T23:09:24.097Z,12.82
2023-05-25T23:11:51.006Z,17.13
2023-05-25T23:14:17.810Z,14.68
2023-05-25T23:16:45.722Z,15.50
2023-05-25T23:19:12.689Z,14.75
2023-05-25T23:21:40.713Z,15.82
2023-05-25T23:24:08.858Z,18.15
2023-05-25T23:26:35.598Z,16.45
2023-05-25T23:29:02.677Z,14.80
2023-05-25T23:31:29.567Z,18.10
2023-05-25T23:33:56.500Z,16.70
2023-05-25T23:36:26.325Z,18.33
2023-05-25T23:38:53.345Z,11.55
2023-05-25T23:41:20.410Z,17.13
2023-05-25T23:43:47.713Z,12.85
2023-05-25T23:46:16.406Z,15.90
2023-05-25T23:48:44.269Z,19.20
2023-05-25T23:51:11.378Z,15.93
2023-05-25T23:53:39.218Z,18.48
2023-05-25T23:56:06.183Z,18.27
2023-05-25T23:58:32.935Z,18.38
